Time;durP1;ratioP1;P1;durP2;ratioP2;P2;SDS_P1;SDS_P2;PMS_P1;PMS_P2;Temp;Humidity;BMP_temperature;BMP_pressure;BME280_temperature;BME280_humidity;BME280_pressure;Samples;Min_cycle;Max_cycle;Signal;HPM_P1;HPM_P2
2021/09/11 00:01:21;;;;;;;11.30;7.72;;;;;;;12.73;71.73;100219.71;2156699;80;21031;-80
2021/09/11 00:04:22;;;;;;;16.65;8.83;;;;;;;12.71;71.49;100223.55;2161128;80;22449;-79
2021/09/11 00:07:23;;;;;;;15.15;8.05;;;;;;;12.71;71.49;100223.05;2156704;80;21313;-75
2021/09/11 00:10:24;;;;;;;19.82;9.93;;;;;;;12.70;71.68;100215.25;2155401;80;20936;-76
2021/09/11 00:13:25;;;;;;;15.23;9.65;;;;;;;12.65;71.87;100212.29;2161480;80;20996;-78
2021/09/11 00:16:26;;;;;;;12.10;8.93;;;;;;;12.67;72.10;100218.24;2156695;80;21070;-78
2021/09/11 00:19:28;;;;;;;11.60;7.55;;;;;;;12.66;71.92;100216.09;2155362;80;21067;-76
2021/09/11 00:22:29;;;;;;;14.28;8.90;;;;;;;12.64;71.58;100218.59;2159702;80;21081;-79
2021/09/11 00:25:31;;;;;;;10.00;7.58;;;;;;;12.64;71.81;100214.61;2154839;80;20996;-78
2021/09/11 00:28:32;;;;;;;22.35;8.08;;;;;;;12.67;71.87;100215.58;2159136;80;20955;-79
2021/09/11 00:31:33;;;;;;;12.88;9.03;;;;;;;12.61;71.79;100212.30;2160778;80;21024;-77
2021/09/11 00:34:34;;;;;;;15.60;9.23;;;;;;;12.54;71.83;100217.01;2160961;80;21033;-76
2021/09/11 00:37:35;;;;;;;11.85;8.03;;;;;;;12.50;71.79;100214.87;2155277;80;21004;-78
2021/09/11 00:40:36;;;;;;;11.48;7.20;;;;;;;12.46;71.44;100209.59;2158377;80;20941;-78
2021/09/11 00:43:48;;;;;;;14.83;7.80;;;;;;;12.41;71.48;100210.10;2159966;80;21465;-79
2021/09/11 00:46:49;;;;;;;12.20;7.58;;;;;;;12.36;71.37;100215.62;2160694;80;21034;-78
2021/09/11 00:49:50;;;;;;;12.78;8.10;;;;;;;12.23;71.78;100217.55;2160277;80;21000;-79
2021/09/11 00:52:52;;;;;;;13.40;8.43;;;;;;;12.23;71.78;100217.55;2158785;80;21063;-78
2021/09/11 00:55:53;;;;;;;15.00;8.28;;;;;;;12.24;71.91;100216.03;2156755;80;21013;-79
2021/09/11 00:58:54;;;;;;;19.85;8.93;;;;;;;12.24;72.18;100209.89;2157698;80;21056;-81
2021/09/11 01:01:55;;;;;;;14.75;8.33;;;;;;;12.22;72.53;100205.23;2158441;80;20940;-78
2021/09/11 01:04:56;;;;;;;11.83;7.62;;;;;;;12.20;72.67;100212.58;2162738;80;20997;-76
2021/09/11 01:07:58;;;;;;;11.83;7.95;;;;;;;12.16;72.69;100212.08;2160348;80;20958;-81
2021/09/11 01:10:59;;;;;;;17.48;7.58;;;;;;;12.15;72.65;100213.60;2162048;79;21464;-80
2021/09/11 01:14:01;;;;;;;12.03;8.38;;;;;;;12.15;72.75;100216.27;2156036;80;21491;-80
2021/09/11 01:17:02;;;;;;;10.58;7.25;;;;;;;12.13;72.65;100212.94;2157251;80;20984;-77
2021/09/11 01:20:05;;;;;;;12.05;7.90;;;;;;;12.05;72.46;100201.83;2156876;80;21027;-82
2021/09/11 01:23:07;;;;;;;14.80;8.13;;;;;;;12.07;72.48;100198.50;2163917;80;21082;-77
2021/09/11 01:26:08;;;;;;;11.12;8.60;;;;;;;11.99;72.49;100208.67;2154900;80;21025;-78
2021/09/11 01:29:11;;;;;;;9.98;7.95;;;;;;;11.99;72.49;100208.67;2165976;80;20985;-77
2021/09/11 01:32:15;;;;;;;11.57;8.18;;;;;;;11.84;72.70;100187.79;2153755;80;21009;-78
2021/09/11 01:35:17;;;;;;;16.30;8.28;;;;;;;11.92;72.81;100202.41;2158259;80;21458;-77
2021/09/11 01:38:18;;;;;;;16.32;8.70;;;;;;;11.92;72.54;100218.88;2153399;80;21465;-76
2021/09/11 01:41:19;;;;;;;16.42;8.65;;;;;;;11.81;72.65;100210.73;2158026;80;20968;-78
2021/09/11 01:44:20;;;;;;;16.73;8.10;;;;;;;11.72;72.84;100207.28;2158612;80;20954;-81
2021/09/11 01:47:22;;;;;;;12.18;9.15;;;;;;;11.69;72.69;100202.82;2161582;80;21057;-79
2021/09/11 01:50:23;;;;;;;13.98;10.00;;;;;;;11.50;73.06;100184.11;2157630;80;21064;-81
2021/09/11 01:53:24;;;;;;;15.28;9.10;;;;;;;11.50;73.06;100184.11;2162066;80;20928;-77
2021/09/11 01:56:25;;;;;;;12.50;8.23;;;;;;;11.52;73.23;100190.91;2152642;80;21063;-80
2021/09/11 01:59:26;;;;;;;10.45;7.87;;;;;;;11.52;73.23;100190.91;2152690;81;20995;-78
2021/09/11 02:02:27;;;;;;;12.03;8.28;;;;;;;11.66;73.22;100216.77;2152873;81;21049;-75
2021/09/11 02:05:28;;;;;;;11.48;7.45;;;;;;;11.64;73.02;100214.78;2146361;81;20990;-78
2021/09/11 02:08:29;;;;;;;11.20;7.55;;;;;;;11.62;72.94;100210.63;2146470;81;21029;-78
2021/09/11 02:11:30;;;;;;;14.87;9.20;;;;;;;11.59;72.81;100212.30;2155857;81;20984;-77
2021/09/11 02:14:31;;;;;;;18.15;9.08;;;;;;;11.57;73.18;100215.62;2148046;80;20961;-76
2021/09/11 02:17:33;;;;;;;13.68;8.68;;;;;;;11.56;73.30;100209.99;2149709;81;20986;-78
2021/09/11 02:20:34;;;;;;;10.68;8.48;;;;;;;11.51;72.94;100218.46;2150922;81;21036;-77
2021/09/11 02:23:35;;;;;;;17.20;8.30;;;;;;;11.51;72.94;100218.46;2155729;81;20961;-74
2021/09/11 02:26:37;;;;;;;12.05;8.00;;;;;;;11.47;73.03;100207.86;2155394;81;21605;-77
2021/09/11 02:29:38;;;;;;;16.73;9.15;;;;;;;11.44;73.02;100206.37;2154293;81;20961;-79
2021/09/11 02:32:39;;;;;;;14.75;9.45;;;;;;;11.44;73.20;100205.55;2149599;81;20993;-78
2021/09/11 02:35:40;;;;;;;12.70;9.03;;;;;;;11.44;73.53;100203.72;2151397;81;21050;-81
2021/09/11 02:38:43;;;;;;;13.32;8.70;;;;;;;11.42;73.18;100200.39;2149907;81;21130;-77
2021/09/11 02:41:44;;;;;;;10.63;8.40;;;;;;;11.42;73.18;100200.39;2146667;81;21434;-78
2021/09/11 02:44:45;;;;;;;12.73;7.95;;;;;;;11.43;73.43;100202.54;2152816;81;20957;-79
2021/09/11 02:47:46;;;;;;;12.28;8.43;;;;;;;11.45;73.40;100201.88;2157175;81;21849;-76
2021/09/11 02:50:48;;;;;;;14.85;8.88;;;;;;;11.45;73.39;100205.86;2149689;81;21008;-77
2021/09/11 02:53:49;;;;;;;12.90;8.83;;;;;;;11.47;73.54;100201.22;2152645;81;21008;-77
2021/09/11 02:56:50;;;;;;;13.18;9.13;;;;;;;11.48;73.57;100207.36;2161355;81;21050;-78
2021/09/11 02:59:51;;;;;;;19.92;10.55;;;;;;;11.45;73.65;100205.86;2165081;80;21491;-80
2021/09/11 03:02:52;;;;;;;15.95;10.68;;;;;;;11.45;73.78;100203.20;2161210;81;21525;-79
2021/09/11 03:05:53;;;;;;;16.67;10.10;;;;;;;11.46;73.97;100203.55;2160085;80;21022;-77
2021/09/11 03:08:54;;;;;;;19.57;9.35;;;;;;;11.47;74.05;100204.38;2166060;81;21411;-79
2021/09/11 03:11:55;;;;;;;17.25;10.10;;;;;;;11.44;74.11;100209.53;2159623;80;21026;-81
2021/09/11 03:14:57;;;;;;;13.68;9.83;;;;;;;11.38;74.27;100201.74;2159191;80;20919;-79
2021/09/11 03:17:58;;;;;;;14.05;9.68;;;;;;;11.36;74.32;100203.73;2162424;80;20960;-78
2021/09/11 03:20:59;;;;;;;11.83;9.33;;;;;;;11.33;74.58;100203.25;2164459;81;21093;-78
2021/09/11 03:24:00;;;;;;;19.35;10.38;;;;;;;11.32;74.48;100202.42;2165963;81;21547;-78
2021/09/11 03:27:01;;;;;;;14.95;9.43;;;;;;;11.33;74.73;100196.10;2156720;80;21006;-79
2021/09/11 03:30:04;;;;;;;12.73;8.55;;;;;;;11.35;74.61;100202.08;2159578;81;21463;-78
2021/09/11 03:33:05;;;;;;;11.40;8.35;;;;;;;11.35;74.40;100202.08;2168925;81;21085;-79
2021/09/11 03:36:06;;;;;;;9.50;7.60;;;;;;;11.37;74.44;100201.39;2164473;80;21043;-77
2021/09/11 03:39:07;;;;;;;19.27;9.33;;;;;;;11.37;74.28;100200.57;2162248;81;20956;-75
2021/09/11 03:42:08;;;;;;;16.48;9.00;;;;;;;11.33;74.29;100200.59;2159174;81;20975;-78
2021/09/11 03:45:10;;;;;;;13.88;8.95;;;;;;;11.30;74.46;100200.93;2164208;81;21545;-78
2021/09/11 03:48:11;;;;;;;15.85;8.63;;;;;;;11.26;74.29;100199.59;2163910;81;21493;-79
2021/09/11 03:51:12;;;;;;;12.73;9.40;;;;;;;11.24;74.60;100201.61;2161488;81;21000;-78
2021/09/11 03:54:13;;;;;;;12.50;9.18;;;;;;;11.22;74.48;100195.95;2160090;81;21695;-78
2021/09/11 03:57:14;;;;;;;14.90;9.25;;;;;;;11.22;74.66;100194.62;2170170;80;21479;-78
2021/09/11 04:00:15;;;;;;;14.93;9.00;;;;;;;11.18;74.88;100197.30;2178564;80;21069;-75
2021/09/11 04:03:16;;;;;;;16.75;9.18;;;;;;;11.14;74.89;100198.62;2173494;80;20958;-77
2021/09/11 04:06:18;;;;;;;15.13;9.60;;;;;;;11.10;74.99;100198.64;2177841;80;21025;-78
2021/09/11 04:09:19;;;;;;;16.82;8.80;;;;;;;11.09;75.31;100199.62;2171213;80;20989;-78
2021/09/11 04:12:20;;;;;;;12.85;9.08;;;;;;;11.10;75.08;100201.30;2179199;80;20951;-79
2021/09/11 04:15:21;;;;;;;16.60;9.43;;;;;;;11.09;75.30;100202.27;2172394;80;21036;-77
2021/09/11 04:18:22;;;;;;;12.33;8.18;;;;;;;11.08;75.38;100206.44;2179768;80;21398;-78
2021/09/11 04:21:23;;;;;;;13.65;8.28;;;;;;;11.12;75.29;100214.39;2176285;80;21029;-77
2021/09/11 04:24:24;;;;;;;14.68;8.85;;;;;;;11.12;75.22;100209.08;2174199;80;21065;-76
2021/09/11 04:27:25;;;;;;;10.13;7.53;;;;;;;11.03;74.86;100212.74;2173386;80;20987;-77
2021/09/11 04:30:27;;;;;;;10.28;8.23;;;;;;;11.03;74.94;100214.08;2177515;80;21003;-77
2021/09/11 04:33:28;;;;;;;14.70;9.60;;;;;;;11.03;74.89;100210.91;2176034;80;21491;-77
2021/09/11 04:36:29;;;;;;;17.82;9.03;;;;;;;11.03;75.24;100214.90;2178760;80;20970;-79
2021/09/11 04:39:30;;;;;;;14.78;9.65;;;;;;;10.99;75.17;100205.63;2174978;80;21025;-76
2021/09/11 04:42:31;;;;;;;13.68;9.33;;;;;;;10.95;75.27;100211.77;2170023;80;20934;-76
2021/09/11 04:45:32;;;;;;;15.75;8.58;;;;;;;10.99;75.51;100217.57;2170616;80;20999;-78
2021/09/11 04:48:33;;;;;;;15.68;10.43;;;;;;;11.06;75.54;100213.23;2180578;80;21481;-77
2021/09/11 04:51:34;;;;;;;16.00;9.23;;;;;;;11.10;75.63;100213.24;2169803;80;21074;-78
2021/09/11 04:54:36;;;;;;;14.73;9.80;;;;;;;11.11;75.57;100209.58;2176052;80;21614;-76
2021/09/11 04:57:37;;;;;;;18.98;9.45;;;;;;;11.18;75.70;100217.22;2173601;80;20964;-76
2021/09/11 05:00:38;;;;;;;21.17;8.75;;;;;;;11.28;75.63;100212.22;2164209;80;21538;-75
2021/09/11 05:03:41;;;;;;;14.45;9.55;;;;;;;11.38;75.64;100216.35;2167149;80;21029;-78
2021/09/11 05:06:42;;;;;;;17.98;9.90;;;;;;;11.47;75.56;100215.00;2145712;80;21023;-81
2021/09/11 05:09:43;;;;;;;16.05;9.30;;;;;;;11.50;75.46;100215.99;2165833;80;21002;-78
2021/09/11 05:12:44;;;;;;;15.60;9.50;;;;;;;11.58;75.59;100218.62;2173477;80;21059;-74
2021/09/11 05:15:45;;;;;;;14.47;8.78;;;;;;;11.73;75.76;100213.42;2168888;80;21611;-79
2021/09/11 05:18:47;;;;;;;12.37;8.65;;;;;;;12.10;75.98;100218.92;2170367;80;20980;-80
2021/09/11 05:21:48;;;;;;;19.75;9.63;;;;;;;12.64;75.85;100218.59;2170592;80;21024;-76
2021/09/11 05:24:49;;;;;;;15.93;8.53;;;;;;;13.18;75.54;100219.33;2168350;80;20949;-77
2021/09/11 05:27:50;;;;;;;15.13;8.75;;;;;;;13.70;74.94;100218.97;2171530;80;21308;-79
2021/09/11 05:30:54;;;;;;;11.53;7.83;;;;;;;14.19;74.53;100212.17;2176025;80;21043;-78
2021/09/11 05:33:56;;;;;;;16.23;8.93;;;;;;;14.70;74.01;100221.49;2168300;80;21049;-77
2021/09/11 05:36:57;;;;;;;12.73;7.75;;;;;;;15.17;73.26;100208.81;2170661;80;20950;-81
2021/09/11 05:39:58;;;;;;;13.90;7.20;;;;;;;15.72;72.95;100208.17;2175667;80;21008;-79
2021/09/11 05:42:59;;;;;;;9.30;6.90;;;;;;;16.30;72.34;100208.09;2167385;80;21061;-80
2021/09/11 05:46:00;;;;;;;13.08;6.50;;;;;;;16.68;70.46;100202.70;2175332;80;21049;-77
2021/09/11 05:49:01;;;;;;;10.98;7.20;;;;;;;17.02;69.94;100207.06;2166433;80;20981;-80
2021/09/11 05:52:03;;;;;;;8.58;6.10;;;;;;;17.41;69.52;100212.91;2145774;80;21067;-81
2021/09/11 05:55:05;;;;;;;7.42;6.12;;;;;;;17.79;69.01;100215.42;2176040;80;21088;-79
2021/09/11 05:58:07;;;;;;;10.00;6.05;;;;;;;18.21;67.83;100211.84;2169945;80;21054;-80
2021/09/11 06:01:08;;;;;;;11.12;5.92;;;;;;;18.62;66.81;100219.45;2171078;80;21072;-77
2021/09/11 06:04:09;;;;;;;12.68;5.47;;;;;;;18.97;65.86;100213.64;2165994;80;21012;-77
2021/09/11 06:07:10;;;;;;;8.78;5.92;;;;;;;19.36;64.98;100215.15;2173773;80;20942;-78
2021/09/11 06:10:12;;;;;;;9.55;6.28;;;;;;;19.77;63.82;100204.30;2171618;80;20968;-78
2021/09/11 06:13:13;;;;;;;12.50;5.75;;;;;;;19.99;62.73;100209.20;2165868;80;21559;-79
2021/09/11 06:16:14;;;;;;;12.58;5.97;;;;;;;20.28;62.04;100210.29;2168678;80;21383;-76
2021/09/11 06:19:16;;;;;;;8.73;5.42;;;;;;;20.48;61.06;100206.78;2175464;80;21003;-75
2021/09/11 06:22:17;;;;;;;8.63;5.47;;;;;;;20.68;60.30;100209.20;2167481;80;21032;-77
2021/09/11 06:25:18;;;;;;;9.88;4.92;;;;;;;20.83;59.53;100203.37;2175456;80;20960;-76
2021/09/11 06:28:25;;;;;;;14.38;5.15;;;;;;;21.03;59.11;100207.08;2172619;80;21569;-78
2021/09/11 06:31:23;;;;;;;11.78;5.22;;;;;;;21.32;58.35;100208.05;2169816;79;20993;-79
2021/09/11 06:34:25;;;;;;;8.35;5.33;;;;;;;21.60;58.09;100209.23;2174387;80;20986;-77
2021/09/11 06:37:26;;;;;;;9.28;5.28;;;;;;;21.88;57.04;100213.34;2169699;80;21000;-79
2021/09/11 06:40:27;;;;;;;7.30;5.10;;;;;;;22.11;56.43;100212.44;2176522;80;21043;-79
2021/09/11 06:43:28;;;;;;;8.83;5.08;;;;;;;22.33;56.10;100213.16;2172480;80;21845;-76
2021/09/11 06:46:29;;;;;;;8.88;4.90;;;;;;;22.48;54.62;100212.61;2177186;80;21038;-73
2021/09/11 06:49:30;;;;;;;7.97;4.62;;;;;;;22.60;54.72;100218.77;2168178;80;20973;-73
2021/09/11 06:52:33;;;;;;;8.05;4.85;;;;;;;22.79;53.98;100220.19;2172080;80;21009;-74
2021/09/11 06:55:34;;;;;;;9.25;4.45;;;;;;;23.03;54.22;100219.55;2170451;80;21040;-73
2021/09/11 06:58:36;;;;;;;7.28;4.42;;;;;;;23.34;53.61;100218.66;2160499;80;21037;-81
2021/09/11 07:01:37;;;;;;;8.73;4.60;;;;;;;23.71;52.90;100217.56;2164918;80;21023;-79
2021/09/11 07:04:38;;;;;;;10.93;4.80;;;;;;;24.15;52.40;100222.14;2157362;80;21514;-80
2021/09/11 07:07:39;;;;;;;11.25;4.90;;;;;;;24.48;51.81;100217.11;2157976;80;21022;-79
2021/09/11 07:10:43;;;;;;;11.22;4.28;;;;;;;24.59;50.39;100217.48;2159695;80;21519;-78
2021/09/11 07:13:44;;;;;;;6.90;4.67;;;;;;;24.69;50.32;100215.39;2157533;80;21341;-80
2021/09/11 07:16:46;;;;;;;8.25;4.60;;;;;;;24.85;49.86;100225.84;2161248;80;21696;-80
2021/09/11 07:19:47;;;;;;;11.08;4.10;;;;;;;24.98;49.18;100219.99;2160703;80;21490;-79
2021/09/11 07:22:48;;;;;;;9.20;4.42;;;;;;;24.93;48.04;100214.52;2164155;80;21095;-80
2021/09/11 07:25:50;;;;;;;8.83;4.20;;;;;;;24.93;48.13;100217.77;2161597;80;21472;-79
2021/09/11 07:28:51;;;;;;;7.60;4.00;;;;;;;25.09;47.50;100225.48;2161168;80;21008;-78
2021/09/11 07:31:53;;;;;;;8.25;4.37;;;;;;;25.18;47.48;100223.97;2156820;80;20985;-76
2021/09/11 07:34:54;;;;;;;7.12;4.33;;;;;;;25.33;47.10;100221.34;2154971;80;21049;-83
2021/09/11 07:37:56;;;;;;;6.45;4.90;;;;;;;25.59;46.79;100218.77;2156638;80;21025;-81
2021/09/11 07:40:57;;;;;;;9.73;4.55;;;;;;;25.75;46.44;100214.23;2156890;80;21524;-79
2021/09/11 07:43:58;;;;;;;6.83;4.03;;;;;;;25.98;45.33;100213.81;2162311;80;21040;-81
2021/09/11 07:46:59;;;;;;;10.35;3.90;;;;;;;25.96;45.05;100220.59;2135927;80;20968;-81
2021/09/11 07:50:00;;;;;;;6.35;3.87;;;;;;;26.01;45.16;100228.77;2152379;80;21089;-80
2021/09/11 07:53:04;;;;;;;4.80;3.90;;;;;;;26.20;45.89;100227.76;2158752;80;21006;-81
2021/09/11 07:56:05;;;;;;;7.53;3.87;;;;;;;26.59;45.49;100232.22;2152015;80;21006;-81
2021/09/11 07:59:06;;;;;;;7.03;3.83;;;;;;;26.81;44.81;100237.42;2159391;80;21474;-83
2021/09/11 08:02:08;;;;;;;7.47;4.40;;;;;;;27.08;44.31;100229.50;2137955;80;21063;-81
2021/09/11 08:05:10;;;;;;;13.05;4.67;;;;;;;27.39;43.82;100234.39;2156187;80;20967;-78
2021/09/11 08:08:11;;;;;;;11.00;4.10;;;;;;;27.64;43.78;100239.77;2160398;80;21066;-79
2021/09/11 08:11:15;;;;;;;10.55;4.17;;;;;;;27.90;43.21;100238.34;2164861;80;21554;-78
2021/09/11 08:14:15;;;;;;;6.15;3.65;;;;;;;28.22;43.03;100239.86;2156918;80;21016;-80
2021/09/11 08:17:16;;;;;;;6.12;3.98;;;;;;;28.48;42.54;100240.55;2159525;80;21004;-77
2021/09/11 08:20:18;;;;;;;8.63;3.77;;;;;;;28.66;42.24;100237.68;2159707;80;21017;-76
2021/09/11 08:23:19;;;;;;;7.03;3.83;;;;;;;28.85;41.60;100230.44;2146860;80;21000;-76
2021/09/11 08:26:21;;;;;;;7.12;3.87;;;;;;;29.01;41.75;100229.20;2163443;80;21065;-77
2021/09/11 08:29:22;;;;;;;9.60;3.95;;;;;;;29.16;41.05;100232.93;2158643;80;21022;-74
2021/09/11 08:32:23;;;;;;;6.83;3.83;;;;;;;29.12;40.45;100229.16;2162057;80;21594;-77
2021/09/11 08:35:24;;;;;;;6.42;3.65;;;;;;;29.42;40.66;100232.92;2159837;80;20989;-76
2021/09/11 08:38:26;;;;;;;14.45;4.53;;;;;;;29.68;40.28;100228.59;2157605;80;21517;-77
2021/09/11 08:41:29;;;;;;;7.12;3.77;;;;;;;29.95;39.56;100227.97;2152722;80;21036;-79
2021/09/11 08:44:31;;;;;;;7.72;3.72;;;;;;;30.08;39.16;100223.72;2151718;80;21017;-79
2021/09/11 08:47:32;;;;;;;6.80;3.98;;;;;;;30.18;39.09;100230.39;2150140;80;20958;-75
2021/09/11 08:50:33;;;;;;;8.40;3.85;;;;;;;30.40;38.64;100229.84;2152442;80;21550;-77
2021/09/11 08:53:36;;;;;;;6.37;3.65;;;;;;;30.51;38.52;100227.77;2159161;80;21039;-79
2021/09/11 08:56:41;;;;;;;6.35;3.58;;;;;;;30.66;38.00;100234.38;2153113;80;21019;-76
2021/09/11 08:59:43;;;;;;;8.15;3.95;;;;;;;30.46;37.19;100213.59;2152008;80;21075;-78
2021/09/11 09:02:44;;;;;;;9.90;3.47;;;;;;;30.46;37.19;100213.59;2157222;80;21417;-80
2021/09/11 09:05:45;;;;;;;7.72;3.45;;;;;;;30.58;36.55;100242.72;2156991;80;21029;-82
2021/09/11 09:08:52;;;;;;;6.65;3.45;;;;;;;30.33;36.78;100247.21;2155221;80;21017;-82
2021/09/11 09:11:53;;;;;;;7.75;3.65;;;;;;;30.57;36.99;100241.64;2155377;80;21038;-81
2021/09/11 09:15:10;;;;;;;5.97;3.70;;;;;;;30.54;36.35;100244.41;2154522;80;21012;-82
2021/09/11 09:18:15;;;;;;;7.12;3.65;;;;;;;30.57;36.04;100237.53;2151828;80;21094;-81
2021/09/11 09:21:30;;;;;;;11.28;3.90;;;;;;;30.56;36.36;100244.13;2154250;80;21070;-78
2021/09/11 09:24:38;;;;;;;11.10;4.58;;;;;;;30.56;36.30;100244.13;2152989;80;20972;-79
2021/09/11 09:27:43;;;;;;;9.38;4.33;;;;;;;30.30;36.14;100245.88;2164672;80;21078;-80
2021/09/11 09:30:48;;;;;;;10.68;4.40;;;;;;;30.35;35.72;100242.23;2154604;80;21012;-85
2021/09/11 09:33:49;;;;;;;11.30;4.45;;;;;;;30.22;36.23;100246.53;2158724;80;21582;-84
2021/09/11 09:36:55;;;;;;;8.63;4.47;;;;;;;30.06;36.06;100247.80;2159243;80;21010;-84
2021/09/11 09:39:59;;;;;;;9.50;4.25;;;;;;;29.94;36.43;100244.94;2158620;80;21038;-83
2021/09/11 09:43:00;;;;;;;6.97;4.30;;;;;;;29.96;36.64;100235.62;2153978;80;21062;-80
2021/09/11 09:46:14;;;;;;;5.12;4.15;;;;;;;30.32;36.59;100235.42;2155218;80;21609;-78
2021/09/11 09:49:22;;;;;;;13.35;4.40;;;;;;;30.41;36.65;100229.28;2166866;80;21001;-78
2021/09/11 09:52:23;;;;;;;13.83;4.90;;;;;;;30.35;36.98;100237.59;2152855;80;20949;-82
2021/09/11 09:55:25;;;;;;;16.85;5.08;;;;;;;30.49;36.91;100232.72;2158322;80;21045;-81
2021/09/11 09:58:26;;;;;;;8.55;4.55;;;;;;;30.54;36.81;100231.28;2157238;80;21037;-77
2021/09/11 10:01:28;;;;;;;8.20;4.58;;;;;;;30.69;36.47;100231.06;2158270;80;20958;-82
2021/09/11 10:04:33;;;;;;;10.72;4.95;;;;;;;30.68;36.55;100228.05;2163948;80;20990;-84
2021/09/11 10:07:35;;;;;;;6.55;4.45;;;;;;;30.67;36.64;100227.80;2151334;80;21095;-81
2021/09/11 10:10:40;;;;;;;8.95;4.65;;;;;;;30.77;36.84;100234.46;2156797;80;21054;-81
2021/09/11 10:14:00;;;;;;;11.33;5.53;;;;;;;30.67;37.10;100226.99;2155071;80;20986;-79
2021/09/11 10:17:05;;;;;;;7.42;4.35;;;;;;;30.76;36.84;100228.74;2155622;80;21011;-79
2021/09/11 10:20:07;;;;;;;6.78;4.47;;;;;;;30.74;36.79;100232.33;2156375;80;21616;-81
2021/09/11 10:23:14;;;;;;;10.48;4.83;;;;;;;30.69;36.85;100225.59;2158292;80;21044;-80
2021/09/11 10:26:45;;;;;;;7.53;4.58;;;;;;;30.66;36.77;100223.41;2157522;79;20963;-81
2021/09/11 10:29:56;;;;;;;8.00;5.08;;;;;;;30.58;36.46;100230.41;2159657;80;21034;-78
2021/09/11 10:32:57;;;;;;;11.45;4.90;;;;;;;30.59;36.73;100218.33;2161252;80;21013;-85
2021/09/11 10:35:58;;;;;;;11.88;4.92;;;;;;;30.72;36.75;100226.89;2160399;80;21008;-83
2021/09/11 10:39:09;;;;;;;7.50;5.08;;;;;;;30.69;36.47;100226.12;2158672;80;21002;-84
2021/09/11 10:42:10;;;;;;;8.53;4.83;;;;;;;30.63;36.96;100223.20;2161953;80;20997;-82
2021/09/11 10:45:11;;;;;;;8.83;4.72;;;;;;;30.64;36.73;100218.81;2163396;80;21009;-82
2021/09/11 10:48:39;;;;;;;13.55;5.30;;;;;;;30.55;36.41;100213.73;2164627;80;21009;-81
2021/09/11 10:51:47;;;;;;;8.38;5.22;;;;;;;30.44;36.60;100216.37;2155861;80;21026;-80
2021/09/11 10:54:49;;;;;;;12.47;5.35;;;;;;;30.58;36.89;100218.64;2152349;80;21456;-84
2021/09/11 10:57:51;;;;;;;7.37;5.10;;;;;;;30.54;36.57;100217.03;2158779;80;21050;-85
2021/09/11 11:01:01;;;;;;;6.65;5.10;;;;;;;30.66;36.90;100215.20;2155368;80;21293;-81
2021/09/11 11:04:09;;;;;;;11.48;5.30;;;;;;;30.78;37.01;100215.57;2152013;80;20981;-82
2021/09/11 11:07:11;;;;;;;7.87;5.05;;;;;;;30.94;36.68;100211.22;2162608;80;20981;-83
2021/09/11 11:10:17;;;;;;;9.15;5.12;;;;;;;30.89;36.53;100209.93;2156219;80;21020;-85
2021/09/11 11:13:20;;;;;;;8.48;5.47;;;;;;;30.80;36.36;100219.39;2158593;80;21467;-84
2021/09/11 11:16:22;;;;;;;9.18;5.08;;;;;;;30.71;36.27;100211.58;2157717;80;21096;-82
2021/09/11 11:19:26;;;;;;;11.03;5.37;;;;;;;30.53;36.47;100207.77;2153115;80;21049;-83
2021/09/11 11:22:40;;;;;;;7.45;5.40;;;;;;;30.45;37.01;100207.07;2154164;80;21005;-83
2021/09/11 11:25:42;;;;;;;7.30;5.22;;;;;;;30.51;37.07;100205.88;2158787;80;20962;-83
2021/09/11 11:28:43;;;;;;;6.72;4.60;;;;;;;30.44;36.95;100199.95;2157302;80;20955;-83
2021/09/11 11:31:45;;;;;;;9.28;5.28;;;;;;;30.26;37.13;100204.33;2152187;80;20997;-84
2021/09/11 11:34:54;;;;;;;13.40;5.33;;;;;;;30.23;37.25;100188.51;2163401;80;21084;-84
2021/09/11 11:37:57;;;;;;;8.98;4.87;;;;;;;30.29;37.66;100187.31;2159163;80;20981;-82
2021/09/11 11:41:06;;;;;;;7.35;5.20;;;;;;;30.27;37.32;100186.27;2157916;80;21075;-84
2021/09/11 11:44:07;;;;;;;8.55;5.22;;;;;;;30.10;37.94;100175.81;2153070;80;21083;-84
2021/09/11 11:47:26;;;;;;;5.90;4.47;;;;;;;30.12;38.14;100175.49;2150362;80;21438;-83
2021/09/11 11:50:31;;;;;;;19.95;5.62;;;;;;;30.01;37.52;100169.91;2153801;80;21020;-84
2021/09/11 11:53:32;;;;;;;5.40;4.80;;;;;;;29.86;38.45;100166.28;2159447;80;21566;-81
2021/09/11 11:56:49;;;;;;;10.40;4.92;;;;;;;29.80;38.40;100168.02;2161988;80;21033;-83
2021/09/11 11:59:59;;;;;;;9.05;5.67;;;;;;;29.79;38.32;100167.73;2161831;80;21000;-83
2021/09/11 12:03:02;;;;;;;6.85;5.37;;;;;;;29.87;38.01;100156.14;2161650;80;21043;-84
2021/09/11 12:06:06;;;;;;;10.40;5.37;;;;;;;30.07;38.01;100154.52;2156560;80;20966;-84
2021/09/11 12:09:08;;;;;;;15.35;5.30;;;;;;;29.96;38.38;100146.72;2163151;80;21107;-85
2021/09/11 12:12:12;;;;;;;7.78;5.05;;;;;;;29.98;38.32;100148.62;2163440;80;20992;-83
2021/09/11 12:15:16;;;;;;;10.03;5.47;;;;;;;30.02;38.14;100153.77;2158711;80;21034;-82
2021/09/11 12:18:18;;;;;;;6.92;5.20;;;;;;;29.97;38.72;100151.11;2162272;80;21538;-83
2021/09/11 12:21:20;;;;;;;8.20;5.62;;;;;;;29.99;38.31;100147.50;2156843;80;21009;-84
2021/09/11 12:24:33;;;;;;;9.15;5.05;;;;;;;29.97;38.45;100114.18;2154199;80;20980;-80
2021/09/11 12:27:30;;;;;;;9.27;5.10;;;;;;;30.12;38.68;100143.47;2161631;80;21577;-83
2021/09/11 12:30:36;;;;;;;10.72;4.97;;;;;;;30.00;38.60;100138.20;2158683;80;20949;-81
2021/09/11 12:34:01;;;;;;;6.22;5.30;;;;;;;29.90;38.75;100139.98;2148950;80;20990;-83
2021/09/11 12:37:04;;;;;;;10.98;5.92;;;;;;;29.89;38.98;100129.33;2162129;80;21020;-84
2021/09/11 12:40:06;;;;;;;12.20;6.08;;;;;;;29.82;38.62;100130.23;2161301;80;21524;-83
2021/09/11 12:43:10;;;;;;;11.80;5.78;;;;;;;29.65;38.76;100126.10;2158566;80;21087;-83
2021/09/11 12:46:14;;;;;;;6.17;5.42;;;;;;;29.48;38.72;100124.36;2162483;80;21030;-83
2021/09/11 12:49:16;;;;;;;7.72;5.17;;;;;;;29.37;38.89;100130.52;2159760;80;21064;-82
2021/09/11 12:52:17;;;;;;;9.38;5.55;;;;;;;29.29;39.25;100128.44;2157279;80;21028;-83
2021/09/11 12:55:18;;;;;;;9.33;5.70;;;;;;;29.37;39.35;100133.26;2157964;80;21432;-80
2021/09/11 12:58:19;;;;;;;10.18;5.80;;;;;;;29.37;39.39;100126.95;2157479;80;21049;-81
2021/09/11 13:01:22;;;;;;;9.65;5.83;;;;;;;29.21;39.51;100131.24;2153673;80;21006;-82
2021/09/11 13:04:24;;;;;;;8.78;6.40;;;;;;;28.96;39.84;100132.86;2161509;80;21091;-85
2021/09/11 13:07:25;;;;;;;8.05;5.97;;;;;;;28.74;40.15;100131.97;2160797;80;21036;-85
2021/09/11 13:10:27;;;;;;;19.87;6.72;;;;;;;28.52;41.02;100130.54;2156878;80;20988;-81
2021/09/11 13:13:28;;;;;;;12.20;7.05;;;;;;;28.20;41.05;100138.39;2151937;80;21036;-85
2021/09/11 13:16:31;;;;;;;10.28;6.70;;;;;;;27.90;41.32;100142.92;2163151;80;21012;-83
2021/09/11 13:19:32;;;;;;;9.80;6.00;;;;;;;27.52;41.96;100142.54;2145003;80;21020;-83
2021/09/11 13:22:33;;;;;;;9.35;6.30;;;;;;;27.22;42.80;100160.60;2166702;80;21052;-85
2021/09/11 13:25:34;;;;;;;10.48;6.00;;;;;;;26.64;43.10;100172.89;2155957;80;21544;-83
2021/09/11 13:28:39;;;;;;;6.70;4.55;;;;;;;26.12;43.59;100171.98;2158910;79;21091;-84
2021/09/11 13:31:40;;;;;;;13.98;4.30;;;;;;;25.63;43.18;100179.14;2165307;80;21002;-84
2021/09/11 13:34:41;;;;;;;5.37;4.40;;;;;;;25.21;43.47;100167.78;2147476;80;20985;-84
2021/09/11 13:37:46;;;;;;;9.80;5.45;;;;;;;24.66;44.13;100157.58;2155458;80;21861;-84
2021/09/11 13:40:47;;;;;;;8.63;5.50;;;;;;;24.20;44.99;100165.82;2159665;80;20972;-83
2021/09/11 13:43:48;;;;;;;14.93;5.78;;;;;;;23.85;46.72;100180.59;2149682;80;21013;-83
2021/09/11 13:46:55;;;;;;;10.88;5.28;;;;;;;23.49;47.78;100189.61;2151042;80;21067;-79
2021/09/11 13:49:54;;;;;;;8.48;5.42;;;;;;;23.27;49.00;100190.39;2156022;80;21082;-81
2021/09/11 13:52:55;;;;;;;9.68;5.83;;;;;;;23.01;50.10;100189.73;2154019;80;21046;-85
2021/09/11 13:55:57;;;;;;;13.43;6.80;;;;;;;22.77;50.46;100188.50;2153503;80;20998;-83
2021/09/11 13:58:59;;;;;;;10.58;7.00;;;;;;;22.74;51.18;100188.18;2155386;80;21054;-82
2021/09/11 14:02:04;;;;;;;8.83;7.25;;;;;;;22.70;51.99;100186.50;2152286;80;20989;-82